Time,TemperatureF,DewpointF,PressureIn,WindDirection,WindDirectionDegrees,WindSpeedMPH,WindSpeedGustMPH,Humidity,HourlyPrecipIn,Conditions,Clouds,dailyrainin,SoftwareType,DateUTC
2013-01-20 00:00:00,34.7,26.6,30.10,WNW,303,0.0,0.0,72,0.00,,SKC,0.01,VWS V14.01,2013-01-20 05:00:00,
2013-01-20 00:01:00,34.7,26.6,30.10,WNW,303,0.0,0.0,72,0.00,,SKC,0.01,VWS V14.01,2013-01-20 05:01:00,
2013-01-20 00:02:00,34.4,26.7,30.10,WNW,303,0.0,0.0,73,0.00,,SKC,0.00,VWS V14.01,2013-01-20 05:02:00,
2013-01-20 00:03:00,34.4,26.7,30.10,WNW,303,0.0,0.0,73,0.00,,SKC,0.00,VWS V14.01,2013-01-20 05:03:00,
2013-01-20 00:08:00,34.4,26.0,30.10,WNW,303,0.0,0.0,71,0.00,,SKC,0.00,VWS V14.01,2013-01-20 05:08:00,
2013-01-20 00:13:00,34.9,26.1,30.10,WNW,303,0.0,0.0,70,0.00,,SKC,0.00,VWS V14.01,2013-01-20 05:13:00,
2013-01-20 00:18:00,34.9,26.5,30.09,WNW,303,0.0,0.0,71,0.00,,SKC,0.00,VWS V14.01,2013-01-20 05:18:00,
2013-01-20 00:23:00,34.3,26.2,30.09,WNW,303,0.0,0.0,72,0.00,,SKC,0.00,VWS V14.01,2013-01-20 05:23:00,
2013-01-20 00:28:00,34.1,26.4,30.09,WNW,303,0.0,0.0,73,0.00,,SKC,0.00,VWS V14.01,2013-01-20 05:28:00,
2013-01-20 00:33:00,33.8,26.7,30.09,WNW,303,0.0,0.0,75,0.00,,SKC,0.00,VWS V14.01,2013-01-20 05:33:00,
2013-01-20 00:38:00,33.7,26.3,30.09,WNW,303,0.0,0.0,74,0.00,,SKC,0.00,VWS V14.01,2013-01-20 05:38:00,
2013-01-20 00:43:00,33.4,26.3,30.09,WNW,303,0.0,0.0,75,0.00,,SKC,0.00,VWS V14.01,2013-01-20 05:43:00,
2013-01-20 00:48:00,33.4,26.0,30.08,WNW,303,0.0,0.0,74,0.00,,SKC,0.00,VWS V14.01,2013-01-20 05:48:00,
2013-01-20 00:53:00,33.4,26.3,30.08,WNW,303,0.0,0.0,75,0.00,,SKC,0.00,VWS V14.01,2013-01-20 05:53:00,
2013-01-20 00:58:00,33.4,26.3,30.08,WNW,303,0.0,0.0,75,0.00,,SKC,0.00,VWS V14.01,2013-01-20 05:58:00,
2013-01-20 01:03:00,33.2,26.5,30.08,WNW,303,0.0,0.0,76,0.00,,SKC,0.00,VWS V14.01,2013-01-20 06:03:00,
2013-01-20 01:08:00,33.1,26.7,30.08,WNW,303,0.0,0.0,77,0.00,,SKC,0.00,VWS V14.01,2013-01-20 06:08:00,
2013-01-20 01:13:00,33.1,26.7,30.08,WNW,303,0.0,0.0,77,0.00,,SKC,0.00,VWS V14.01,2013-01-20 06:13:00,
2013-01-20 01:18:00,32.9,26.2,30.08,WNW,303,0.0,0.0,76,0.00,,SKC,0.00,VWS V14.01,2013-01-20 06:18:00,
2013-01-20 01:23:00,33.1,26.0,30.08,WNW,303,0.0,0.0,75,0.00,,SKC,0.00,VWS V14.01,2013-01-20 06:23:00,
2013-01-20 01:28:00,33.1,26.0,30.08,WNW,303,0.0,0.0,75,0.00,,SKC,0.00,VWS V14.01,2013-01-20 06:28:00,
2013-01-20 01:33:00,32.9,26.2,30.07,WNW,303,0.0,0.0,76,0.00,,SKC,0.00,VWS V14.01,2013-01-20 06:33:00,
2013-01-20 01:38:00,33.1,26.0,30.07,WNW,303,0.0,0.0,75,0.00,,SKC,0.00,VWS V14.01,2013-01-20 06:38:00,
2013-01-20 01:43:00,33.5,25.5,30.07,WNW,303,0.0,0.0,72,0.00,,SKC,0.00,VWS V14.01,2013-01-20 06:43:00,
2013-01-20 01:48:00,33.5,26.1,30.07,WNW,303,0.0,0.0,74,0.00,,SKC,0.00,VWS V14.01,2013-01-20 06:48:00,
2013-01-20 01:53:00,33.4,26.0,30.07,WNW,303,0.0,0.0,74,0.00,,SKC,0.00,VWS V14.01,2013-01-20 06:53:00,
2013-01-20 01:58:00,33.1,26.0,30.07,WNW,303,0.0,0.0,75,0.00,,SKC,0.00,VWS V14.01,2013-01-20 06:58:00,
2013-01-20 02:03:00,32.9,25.9,30.06,WNW,303,0.0,0.0,75,0.00,,SKC,0.00,VWS V14.01,2013-01-20 07:03:00,
2013-01-20 02:08:00,33.1,26.0,30.06,WNW,303,0.0,0.0,75,0.00,,SKC,0.00,VWS V14.01,2013-01-20 07:08:00,
2013-01-20 02:13:00,33.1,25.7,30.06,WNW,303,0.0,0.0,74,0.00,,SKC,0.00,VWS V14.01,2013-01-20 07:13:00,
2013-01-20 02:18:00,33.4,25.7,30.06,WNW,303,0.0,0.0,73,0.00,,SKC,0.00,VWS V14.01,2013-01-20 07:18:00,
2013-01-20 02:23:00,33.5,25.5,30.06,WNW,303,0.0,0.0,72,0.00,,SKC,0.00,VWS V14.01,2013-01-20 07:23:00,
2013-01-20 02:28:00,33.4,25.4,30.06,WNW,303,0.0,0.0,72,0.00,,SKC,0.00,VWS V14.01,2013-01-20 07:28:00,
2013-01-20 02:33:00,33.5,25.5,30.06,WNW,303,0.0,0.0,72,0.00,,SKC,0.00,VWS V14.01,2013-01-20 07:33:00,
2013-01-20 02:38:00,33.7,25.3,30.06,WNW,303,0.0,0.0,71,0.00,,SKC,0.00,VWS V14.01,2013-01-20 07:38:00,
2013-01-20 02:43:00,34.0,24.2,30.06,WNW,303,0.0,0.0,67,0.00,,SKC,0.00,VWS V14.01,2013-01-20 07:43:00,
2013-01-20 02:48:00,34.3,25.2,30.06,WNW,303,0.0,0.0,69,0.00,,SKC,0.00,VWS V14.01,2013-01-20 07:48:00,
2013-01-20 02:53:00,34.3,25.2,30.06,WNW,303,0.0,0.0,69,0.00,,SKC,0.00,VWS V14.01,2013-01-20 07:53:00,
2013-01-20 02:58:00,34.7,24.1,30.06,WNW,303,0.0,0.0,65,0.00,,SKC,0.00,VWS V14.01,2013-01-20 07:58:00,
2013-01-20 03:03:00,34.7,24.9,30.06,WNW,303,0.0,0.0,67,0.00,,SKC,0.00,VWS V14.01,2013-01-20 08:03:00,
2013-01-20 03:08:00,34.3,24.9,30.06,WNW,303,0.0,0.0,68,0.00,,SKC,0.00,VWS V14.01,2013-01-20 08:08:00,
2013-01-20 03:13:00,34.0,24.6,30.06,WNW,303,0.0,0.0,68,0.00,,SKC,0.00,VWS V14.01,2013-01-20 08:13:00,
2013-01-20 03:18:00,33.8,24.7,30.06,WNW,303,0.0,0.0,69,0.00,,SKC,0.00,VWS V14.01,2013-01-20 08:18:00,
2013-01-20 03:23:00,33.8,24.7,30.06,WNW,303,0.0,0.0,69,0.00,,SKC,0.00,VWS V14.01,2013-01-20 08:23:00,
2013-01-20 03:28:00,34.0,24.6,30.06,WNW,303,0.0,0.0,68,0.00,,SKC,0.00,VWS V14.01,2013-01-20 08:28:00,
2013-01-20 03:33:00,34.4,23.9,30.05,WNW,303,0.0,0.0,65,0.00,,SKC,0.00,VWS V14.01,2013-01-20 08:33:00,
2013-01-20 03:38:00,34.7,23.8,30.05,WNW,303,0.0,0.0,64,0.00,,SKC,0.00,VWS V14.01,2013-01-20 08:38:00,
2013-01-20 03:43:00,35.0,22.9,30.05,WNW,303,0.0,0.0,61,0.00,,SKC,0.00,VWS V14.01,2013-01-20 08:43:00,
2013-01-20 03:48:00,35.5,24.2,30.04,WNW,303,0.0,0.0,63,0.00,,SKC,0.00,VWS V14.01,2013-01-20 08:48:00,
2013-01-20 03:53:00,35.3,24.0,30.04,WNW,303,0.0,0.0,63,0.00,,SKC,0.00,VWS V14.01,2013-01-20 08:53:00,
2013-01-20 03:58:00,36.0,21.4,30.04,WNW,303,0.0,0.0,55,0.00,,SKC,0.00,VWS V14.01,2013-01-20 08:58:00,
2013-01-20 04:03:00,37.0,22.4,30.03,WNW,300,0.0,0.0,55,0.00,,SKC,0.00,VWS V14.01,2013-01-20 09:03:00,
2013-01-20 04:08:00,36.9,23.5,30.03,WNW,299,0.0,0.0,58,0.00,,SKC,0.00,VWS V14.01,2013-01-20 09:08:00,
2013-01-20 04:13:00,36.3,24.1,30.03,WNW,300,0.0,0.0,61,0.00,,SKC,0.00,VWS V14.01,2013-01-20 09:13:00,
2013-01-20 04:18:00,36.6,22.8,30.03,WNW,300,0.0,0.0,57,0.00,,SKC,0.00,VWS V14.01,2013-01-20 09:18:00,
2013-01-20 04:23:00,37.6,22.9,30.03,WNW,299,0.0,0.0,55,0.00,,SKC,0.00,VWS V14.01,2013-01-20 09:23:00,
2013-01-20 04:28:00,37.8,24.0,30.03,WNW,299,0.0,0.0,57,0.00,,SKC,0.00,VWS V14.01,2013-01-20 09:28:00,
2013-01-20 04:33:00,37.5,24.1,30.03,WNW,299,0.0,0.0,58,0.00,,SKC,0.00,VWS V14.01,2013-01-20 09:33:00,
2013-01-20 04:38:00,37.2,23.0,30.03,WNW,300,0.0,0.0,56,0.00,,SKC,0.00,VWS V14.01,2013-01-20 09:38:00,
2013-01-20 04:43:00,37.3,22.6,30.03,WNW,298,0.0,0.0,55,0.00,,SKC,0.00,VWS V14.01,2013-01-20 09:43:00,
2013-01-20 04:48:00,37.9,22.8,30.03,WNW,298,0.0,0.0,54,0.00,,SKC,0.00,VWS V14.01,2013-01-20 09:48:00,
2013-01-20 04:53:00,38.0,21.5,30.03,WNW,299,0.0,0.0,51,0.00,,SKC,0.00,VWS V14.01,2013-01-20 09:53:00,
2013-01-20 04:58:00,38.5,21.5,30.03,WNW,299,0.0,0.0,50,0.00,,SKC,0.00,VWS V14.01,2013-01-20 09:58:00,
2013-01-20 05:03:00,38.5,22.4,30.02,NW,311,0.0,0.0,52,0.00,,SKC,0.00,VWS V14.01,2013-01-20 10:03:00,
2013-01-20 05:08:00,38.9,21.4,30.02,NW,311,0.0,0.0,49,0.00,,SKC,0.00,VWS V14.01,2013-01-20 10:08:00,
2013-01-20 05:13:00,39.6,21.0,30.02,NW,311,0.0,0.0,47,0.00,,SKC,0.00,VWS V14.01,2013-01-20 10:13:00,
2013-01-20 05:18:00,40.5,21.9,30.03,NW,311,0.0,0.0,47,0.00,,SKC,0.00,VWS V14.01,2013-01-20 10:18:00,
2013-01-20 05:23:00,40.1,22.5,30.03,NW,311,0.0,0.0,49,0.00,,SKC,0.00,VWS V14.01,2013-01-20 10:23:00,
2013-01-20 05:28:00,40.3,22.2,30.03,NW,311,0.0,0.0,48,0.00,,SKC,0.00,VWS V14.01,2013-01-20 10:28:00,
2013-01-20 05:33:00,41.2,23.0,30.02,NW,308,0.0,0.0,48,0.00,,SKC,0.00,VWS V14.01,2013-01-20 10:33:00,
2013-01-20 05:38:00,42.3,24.0,30.02,NW,308,0.0,0.0,48,0.00,,SKC,0.00,VWS V14.01,2013-01-20 10:38:00,
2013-01-20 05:43:00,42.3,23.5,30.02,NW,308,0.0,0.0,47,0.00,,SKC,0.00,VWS V14.01,2013-01-20 10:43:00,
2013-01-20 05:48:00,42.8,24.5,30.02,NW,308,0.0,0.0,48,0.00,,SKC,0.00,VWS V14.01,2013-01-20 10:48:00,
2013-01-20 05:53:00,42.3,23.5,30.02,NW,308,0.0,0.0,47,0.00,,SKC,0.00,VWS V14.01,2013-01-20 10:53:00,
2013-01-20 05:58:00,42.8,24.5,30.02,NW,304,0.0,0.0,48,0.00,,SKC,0.00,VWS V14.01,2013-01-20 10:58:00,
2013-01-20 06:03:00,42.6,25.3,30.02,NW,304,0.0,0.0,50,0.00,,SKC,0.00,VWS V14.01,2013-01-20 11:03:00,
2013-01-20 06:08:00,41.9,24.6,30.02,NW,304,0.0,0.0,50,0.00,,SKC,0.00,VWS V14.01,2013-01-20 11:08:00,
2013-01-20 06:13:00,41.1,24.4,30.02,NW,304,0.0,0.0,51,0.00,,SKC,0.00,VWS V14.01,2013-01-20 11:13:00,
2013-01-20 06:18:00,41.8,25.0,30.03,WNW,303,0.0,0.0,51,0.00,,SKC,0.00,VWS V14.01,2013-01-20 11:18:00,
2013-01-20 06:23:00,42.1,25.3,30.03,NW,304,0.0,0.0,51,0.00,,SKC,0.00,VWS V14.01,2013-01-20 11:23:00,
2013-01-20 06:28:00,42.5,25.7,30.03,NW,304,0.0,0.0,51,0.00,,SKC,0.00,VWS V14.01,2013-01-20 11:28:00,
2013-01-20 06:33:00,42.1,25.3,30.03,NW,304,0.0,0.0,51,0.00,,SKC,0.00,VWS V14.01,2013-01-20 11:33:00,
2013-01-20 06:38:00,42.3,26.4,30.03,West,278,0.0,0.0,53,0.00,,SKC,0.00,VWS V14.01,2013-01-20 11:38:00,
2013-01-20 06:43:00,43.5,27.5,30.03,West,270,0.0,0.0,53,0.00,,SKC,0.00,VWS V14.01,2013-01-20 11:43:00,
2013-01-20 06:48:00,44.2,27.7,30.03,WNW,293,0.0,0.0,52,0.00,,SKC,0.00,VWS V14.01,2013-01-20 11:48:00,
2013-01-20 06:53:00,44.1,28.5,30.03,West,262,0.0,0.0,54,0.00,,SKC,0.00,VWS V14.01,2013-01-20 11:53:00,
2013-01-20 06:58:00,44.1,28.5,30.03,West,281,0.0,0.0,54,0.00,,SKC,0.00,VWS V14.01,2013-01-20 11:58:00,
2013-01-20 07:03:00,44.6,28.1,30.03,WNW,297,0.0,0.0,52,0.00,,SKC,0.00,VWS V14.01,2013-01-20 12:03:00,
2013-01-20 07:08:00,44.6,28.1,30.03,WNW,297,0.0,0.0,52,0.00,,SKC,0.00,VWS V14.01,2013-01-20 12:08:00,
2013-01-20 07:13:00,44.5,28.5,30.03,WSW,252,0.0,0.0,53,0.00,,SKC,0.00,VWS V14.01,2013-01-20 12:13:00,
2013-01-20 07:18:00,44.3,28.3,30.03,WNW,290,0.0,0.0,53,0.00,,SKC,0.00,VWS V14.01,2013-01-20 12:18:00,
2013-01-20 07:23:00,44.2,28.2,30.03,WNW,290,0.0,0.0,53,0.00,,SKC,0.00,VWS V14.01,2013-01-20 12:23:00,
2013-01-20 07:28:00,44.5,28.5,30.03,NNW,342,0.0,0.0,53,0.00,,SKC,0.00,VWS V14.01,2013-01-20 12:28:00,
2013-01-20 07:33:00,44.3,27.8,30.03,NNW,343,0.0,0.0,52,0.00,,SKC,0.00,VWS V14.01,2013-01-20 12:33:00,
2013-01-20 07:38:00,44.2,28.2,30.03,NNW,343,0.0,0.0,53,0.00,,SKC,0.00,VWS V14.01,2013-01-20 12:38:00,
2013-01-20 07:43:00,43.9,28.4,30.03,NNW,340,0.0,0.0,54,0.00,,SKC,0.00,VWS V14.01,2013-01-20 12:43:00,
2013-01-20 07:48:00,43.9,28.4,30.03,WNW,292,0.0,0.0,54,0.00,,SKC,0.00,VWS V14.01,2013-01-20 12:48:00,
2013-01-20 07:53:00,44.2,28.6,30.03,West,271,0.0,0.0,54,0.00,,SKC,0.00,VWS V14.01,2013-01-20 12:53:00,
2013-01-20 07:58:00,43.9,28.8,30.03,WNW,282,0.0,0.0,55,0.00,,SKC,0.00,VWS V14.01,2013-01-20 12:58:00,
2013-01-20 08:03:00,44.1,29.0,30.04,WNW,282,0.0,0.0,55,0.00,,SKC,0.00,VWS V14.01,2013-01-20 13:03:00,
2013-01-20 08:08:00,44.2,28.6,30.04,WNW,284,0.0,0.0,54,0.00,,SKC,0.00,VWS V14.01,2013-01-20 13:08:00,
2013-01-20 08:13:00,44.5,28.9,30.04,WNW,284,0.0,0.0,54,0.00,,SKC,0.00,VWS V14.01,2013-01-20 13:13:00,
2013-01-20 08:18:00,44.5,28.9,30.04,WNW,289,0.0,0.0,54,0.00,,SKC,0.00,VWS V14.01,2013-01-20 13:18:00,
2013-01-20 08:23:00,44.6,29.0,30.04,WNW,289,0.0,0.0,54,0.00,,SKC,0.00,VWS V14.01,2013-01-20 13:23:00,
2013-01-20 08:28:00,44.8,29.2,30.04,West,277,0.0,0.0,54,0.00,,SKC,0.00,VWS V14.01,2013-01-20 13:28:00,
2013-01-20 08:33:00,45.1,29.9,30.04,WNW,298,0.0,0.0,55,0.00,,SKC,0.00,VWS V14.01,2013-01-20 13:33:00,
2013-01-20 08:38:00,44.9,29.7,30.04,WNW,302,0.0,0.0,55,0.00,,SKC,0.00,VWS V14.01,2013-01-20 13:38:00,
2013-01-20 08:43:00,44.9,29.7,30.04,SW,222,0.0,0.0,55,0.00,,SKC,0.00,VWS V14.01,2013-01-20 13:43:00,
2013-01-20 08:48:00,45.1,29.0,30.04,WNW,299,0.0,0.0,53,0.00,,SKC,0.00,VWS V14.01,2013-01-20 13:48:00,
2013-01-20 08:53:00,45.4,29.3,30.04,WSW,256,0.0,0.0,53,0.00,,SKC,0.00,VWS V14.01,2013-01-20 13:53:00,
2013-01-20 08:58:00,46.0,30.8,30.04,WSW,255,0.0,0.0,55,0.00,,SKC,0.00,VWS V14.01,2013-01-20 13:58:00,
2013-01-20 09:03:00,46.2,29.6,30.04,WSW,255,0.0,0.0,52,0.00,,SKC,0.00,VWS V14.01,2013-01-20 14:03:00,
2013-01-20 09:08:00,46.7,29.5,30.04,WSW,258,0.0,0.0,51,0.00,,SKC,0.00,VWS V14.01,2013-01-20 14:08:00,
2013-01-20 09:13:00,46.7,30.0,30.04,WSW,245,0.0,0.0,52,0.00,,SKC,0.00,VWS V14.01,2013-01-20 14:13:00,
2013-01-20 09:18:00,46.7,30.0,30.05,West,273,0.0,0.0,52,0.00,,SKC,0.00,VWS V14.01,2013-01-20 14:18:00,
2013-01-20 09:23:00,46.7,30.0,30.05,NW,311,0.0,0.0,52,0.00,,SKC,0.00,VWS V14.01,2013-01-20 14:23:00,
2013-01-20 09:28:00,46.8,30.1,30.05,West,281,0.0,0.0,52,0.00,,SKC,0.00,VWS V14.01,2013-01-20 14:28:00,
2013-01-20 09:33:00,46.7,30.0,30.05,NW,314,0.0,0.0,52,0.00,,SKC,0.00,VWS V14.01,2013-01-20 14:33:00,
2013-01-20 09:38:00,46.8,30.1,30.05,West,271,0.0,0.0,52,0.00,,SKC,0.00,VWS V14.01,2013-01-20 14:38:00,
2013-01-20 09:43:00,47.4,30.2,30.05,West,275,0.0,0.0,51,0.00,,SKC,0.00,VWS V14.01,2013-01-20 14:43:00,
2013-01-20 09:48:00,47.7,30.0,30.05,WNW,286,0.0,0.0,50,0.00,,SKC,0.00,VWS V14.01,2013-01-20 14:48:00,
2013-01-20 09:53:00,47.9,30.7,30.05,West,281,0.0,0.0,51,0.00,,SKC,0.00,VWS V14.01,2013-01-20 14:53:00,
2013-01-20 09:58:00,47.7,30.5,30.05,NW,311,0.0,0.0,51,0.00,,SKC,0.00,VWS V14.01,2013-01-20 14:58:00,
2013-01-20 10:03:00,47.9,30.2,30.05,WSW,257,0.0,0.0,50,0.00,,SKC,0.00,VWS V14.01,2013-01-20 15:03:00,
2013-01-20 10:08:00,48.3,30.5,30.05,NW,307,0.0,0.0,50,0.00,,SKC,0.00,VWS V14.01,2013-01-20 15:08:00,
2013-01-20 10:13:00,48.6,30.3,30.05,WNW,288,0.0,0.0,49,0.00,,SKC,0.00,VWS V14.01,2013-01-20 15:13:00,
2013-01-20 10:18:00,49.2,30.9,30.05,West,268,0.0,0.0,49,0.00,,SKC,0.00,VWS V14.01,2013-01-20 15:18:00,
2013-01-20 10:23:00,49.4,30.5,30.05,WNW,288,0.0,0.0,48,0.00,,SKC,0.00,VWS V14.01,2013-01-20 15:23:00,
2013-01-20 10:28:00,49.6,30.7,30.05,WNW,286,0.0,0.0,48,0.00,,SKC,0.00,VWS V14.01,2013-01-20 15:28:00,
2013-01-20 10:33:00,49.8,30.4,30.06,West,274,0.0,0.0,47,0.00,,SKC,0.00,VWS V14.01,2013-01-20 15:33:00,
2013-01-20 10:38:00,49.8,30.4,30.06,NNW,338,0.0,0.0,47,0.00,,SKC,0.00,VWS V14.01,2013-01-20 15:38:00,
2013-01-20 10:43:00,49.5,30.6,30.06,NNW,339,0.0,0.0,48,0.00,,SKC,0.00,VWS V14.01,2013-01-20 15:43:00,
2013-01-20 10:48:00,49.6,31.7,30.06,WNW,297,0.0,0.0,50,0.00,,SKC,0.00,VWS V14.01,2013-01-20 15:48:00,
2013-01-20 10:53:00,49.8,30.4,30.06,West,274,0.0,0.0,47,0.00,,SKC,0.00,VWS V14.01,2013-01-20 15:53:00,
2013-01-20 10:58:00,49.9,30.5,30.06,West,264,0.0,0.0,47,0.00,,SKC,0.00,VWS V14.01,2013-01-20 15:58:00,
2013-01-20 11:03:00,49.9,30.5,30.06,NW,306,0.0,0.0,47,0.00,,SKC,0.00,VWS V14.01,2013-01-20 16:03:00,
2013-01-20 11:08:00,49.9,31.0,30.06,West,281,0.0,0.0,48,0.00,,SKC,0.00,VWS V14.01,2013-01-20 16:08:00,
2013-01-20 11:13:00,49.9,31.0,30.06,West,278,0.0,0.0,48,0.00,,SKC,0.00,VWS V14.01,2013-01-20 16:13:00,
2013-01-20 11:18:00,49.9,30.5,30.05,NW,311,0.0,0.0,47,0.00,,SKC,0.00,VWS V14.01,2013-01-20 16:18:00,
2013-01-20 11:23:00,49.8,30.9,30.05,WNW,296,0.0,0.0,48,0.00,,SKC,0.00,VWS V14.01,2013-01-20 16:23:00,
2013-01-20 11:28:00,49.8,30.4,30.05,WNW,288,0.0,0.0,47,0.00,,SKC,0.00,VWS V14.01,2013-01-20 16:28:00,
2013-01-20 11:33:00,50.2,30.8,30.05,NW,323,0.0,0.0,47,0.00,,SKC,0.00,VWS V14.01,2013-01-20 16:33:00,
2013-01-20 11:38:00,50.4,29.9,30.05,NW,321,0.0,0.0,45,0.00,,SKC,0.00,VWS V14.01,2013-01-20 16:38:00,
2013-01-20 11:43:00,50.5,30.5,30.05,WSW,244,0.0,0.0,46,0.00,,SKC,0.00,VWS V14.01,2013-01-20 16:43:00,
2013-01-20 11:48:00,50.8,30.2,30.05,NNW,340,0.0,0.0,45,0.00,,SKC,0.00,VWS V14.01,2013-01-20 16:48:00,
2013-01-20 11:53:00,51.1,30.5,30.05,WNW,290,0.0,0.0,45,0.00,,SKC,0.00,VWS V14.01,2013-01-20 16:53:00,
2013-01-20 11:58:00,51.4,30.2,30.05,WNW,283,0.0,0.0,44,0.00,,SKC,0.00,VWS V14.01,2013-01-20 16:58:00,
2013-01-20 12:03:00,51.6,30.4,30.04,West,259,0.0,0.0,44,0.00,,SKC,0.00,VWS V14.01,2013-01-20 17:03:00,
2013-01-20 12:08:00,51.9,29.5,30.04,NW,318,0.0,0.0,42,0.00,,SKC,0.00,VWS V14.01,2013-01-20 17:08:00,
2013-01-20 12:13:00,52.2,30.4,30.04,NNW,335,0.0,0.0,43,0.00,,SKC,0.00,VWS V14.01,2013-01-20 17:13:00,
2013-01-20 12:18:00,52.6,30.2,30.03,WNW,288,0.0,0.0,42,0.00,,SKC,0.00,VWS V14.01,2013-01-20 17:18:00,
2013-01-20 12:23:00,52.8,30.4,30.03,West,272,0.0,0.0,42,0.00,,SKC,0.00,VWS V14.01,2013-01-20 17:23:00,
2013-01-20 12:28:00,52.8,30.4,30.03,WNW,290,0.0,0.0,42,0.00,,SKC,0.00,VWS V14.01,2013-01-20 17:28:00,
2013-01-20 12:33:00,52.9,30.5,30.03,West,273,0.0,0.0,42,0.00,,SKC,0.00,VWS V14.01,2013-01-20 17:33:00,
2013-01-20 12:38:00,53.1,30.6,30.03,West,274,0.0,0.0,42,0.00,,SKC,0.00,VWS V14.01,2013-01-20 17:38:00,
2013-01-20 12:43:00,52.8,29.2,30.03,West,278,0.0,0.0,40,0.00,,SKC,0.00,VWS V14.01,2013-01-20 17:43:00,
2013-01-20 12:48:00,52.9,29.2,30.02,West,273,0.0,0.0,40,0.00,,SKC,0.00,VWS V14.01,2013-01-20 17:48:00,
2013-01-20 12:53:00,53.2,29.5,30.02,SW,224,0.0,0.0,40,0.00,,SKC,0.00,VWS V14.01,2013-01-20 17:53:00,
2013-01-20 12:58:00,53.1,28.8,30.02,NNW,333,0.0,0.0,39,0.00,,SKC,0.00,VWS V14.01,2013-01-20 17:58:00,
2013-01-20 13:03:00,53.2,28.3,30.01,NW,314,0.0,0.0,38,0.00,,SKC,0.00,VWS V14.01,2013-01-20 18:03:00,
2013-01-20 13:08:00,53.3,29.0,30.01,WSW,250,0.0,0.0,39,0.00,,SKC,0.00,VWS V14.01,2013-01-20 18:08:00,
2013-01-20 13:13:00,53.3,29.0,30.01,West,266,0.0,0.0,39,0.00,,SKC,0.00,VWS V14.01,2013-01-20 18:13:00,
2013-01-20 13:18:00,53.6,28.6,30.01,WNW,283,0.0,0.0,38,0.00,,SKC,0.00,VWS V14.01,2013-01-20 18:18:00,
2013-01-20 13:23:00,53.6,29.3,30.01,West,281,0.0,0.0,39,0.00,,SKC,0.00,VWS V14.01,2013-01-20 18:23:00,
2013-01-20 13:28:00,53.6,27.3,30.01,WSW,257,0.0,0.0,36,0.00,,SKC,0.00,VWS V14.01,2013-01-20 18:28:00,
2013-01-20 13:33:00,53.8,28.2,30.01,West,272,0.0,0.0,37,0.00,,SKC,0.00,VWS V14.01,2013-01-20 18:33:00,
2013-01-20 13:38:00,53.8,28.2,30.01,NW,309,0.0,0.0,37,0.00,,SKC,0.00,VWS V14.01,2013-01-20 18:38:00,
2013-01-20 13:43:00,53.9,27.6,30.01,NNW,338,0.0,0.0,36,0.00,,SKC,0.00,VWS V14.01,2013-01-20 18:43:00,
2013-01-20 13:48:00,53.8,26.8,30.00,WSW,241,0.0,0.0,35,0.00,,SKC,0.00,VWS V14.01,2013-01-20 18:48:00,
2013-01-20 13:53:00,53.6,26.6,30.00,West,275,0.0,0.0,35,0.00,,SKC,0.00,VWS V14.01,2013-01-20 18:53:00,
2013-01-20 13:58:00,53.5,27.9,30.00,NNW,337,0.0,0.0,37,0.00,,SKC,0.00,VWS V14.01,2013-01-20 18:58:00,
2013-01-20 14:03:00,53.3,27.0,30.00,West,275,0.0,0.0,36,0.00,,SKC,0.00,VWS V14.01,2013-01-20 19:03:00,
2013-01-20 14:08:00,53.1,27.5,30.00,NW,325,0.0,0.0,37,0.00,,SKC,0.00,VWS V14.01,2013-01-20 19:08:00,
2013-01-20 14:13:00,52.9,28.0,30.00,WNW,301,0.0,0.0,38,0.00,,SKC,0.00,VWS V14.01,2013-01-20 19:13:00,
2013-01-20 14:18:00,52.8,27.9,29.99,NW,316,0.0,0.0,38,0.00,,SKC,0.00,VWS V14.01,2013-01-20 19:18:00,
2013-01-20 14:23:00,52.9,26.7,29.99,NW,304,0.0,0.0,36,0.00,,SKC,0.00,VWS V14.01,2013-01-20 19:23:00,
2013-01-20 14:28:00,52.9,26.7,29.99,North,352,0.0,0.0,36,0.00,,SKC,0.00,VWS V14.01,2013-01-20 19:28:00,
2013-01-20 14:33:00,53.1,26.2,29.99,WNW,288,0.0,0.0,35,0.00,,SKC,0.00,VWS V14.01,2013-01-20 19:33:00,
2013-01-20 14:38:00,53.1,26.2,29.99,WNW,294,0.0,0.0,35,0.00,,SKC,0.00,VWS V14.01,2013-01-20 19:38:00,
2013-01-20 14:43:00,53.2,26.3,29.99,West,278,0.0,0.0,35,0.00,,SKC,0.00,VWS V14.01,2013-01-20 19:43:00,
2013-01-20 14:48:00,53.2,26.3,29.99,WNW,283,0.0,0.0,35,0.00,,SKC,0.00,VWS V14.01,2013-01-20 19:48:00,
2013-01-20 14:53:00,53.1,26.2,29.99,West,280,0.0,0.0,35,0.00,,SKC,0.00,VWS V14.01,2013-01-20 19:53:00,
2013-01-20 14:58:00,53.1,26.2,29.99,WNW,299,0.0,0.0,35,0.00,,SKC,0.00,VWS V14.01,2013-01-20 19:58:00,
2013-01-20 15:03:00,53.3,25.7,30.00,West,262,0.0,0.0,34,0.00,,SKC,0.00,VWS V14.01,2013-01-20 20:03:00,
2013-01-20 15:08:00,53.3,25.7,30.00,NW,308,0.0,0.0,34,0.00,,SKC,0.00,VWS V14.01,2013-01-20 20:08:00,
2013-01-20 15:13:00,53.1,25.5,30.00,West,264,0.0,0.0,34,0.00,,SKC,0.00,VWS V14.01,2013-01-20 20:13:00,
2013-01-20 15:18:00,52.9,26.0,29.99,West,272,0.0,0.0,35,0.00,,SKC,0.00,VWS V14.01,2013-01-20 20:18:00,
2013-01-20 15:23:00,52.9,26.0,29.99,WNW,295,0.0,0.0,35,0.00,,SKC,0.00,VWS V14.01,2013-01-20 20:23:00,
2013-01-20 15:28:00,52.8,25.2,29.99,WNW,303,0.0,0.0,34,0.00,,SKC,0.00,VWS V14.01,2013-01-20 20:28:00,
2013-01-20 15:33:00,52.5,24.2,29.99,NW,325,0.0,0.0,33,0.00,,SKC,0.00,VWS V14.01,2013-01-20 20:33:00,
2013-01-20 15:38:00,52.2,24.7,29.99,WNW,302,0.0,0.0,34,0.00,,SKC,0.00,VWS V14.01,2013-01-20 20:38:00,
2013-01-20 15:43:00,51.9,24.4,29.99,NNW,341,0.0,0.0,34,0.00,,SKC,0.00,VWS V14.01,2013-01-20 20:43:00,
2013-01-20 15:48:00,51.9,25.1,30.00,WNW,298,0.0,0.0,35,0.00,,SKC,0.00,VWS V14.01,2013-01-20 20:48:00,
2013-01-20 15:53:00,51.6,25.5,30.00,West,275,0.0,0.0,36,0.00,,SKC,0.00,VWS V14.01,2013-01-20 20:53:00,
2013-01-20 15:58:00,51.6,24.9,30.00,WNW,291,0.0,0.0,35,0.00,,SKC,0.00,VWS V14.01,2013-01-20 20:58:00,
2013-01-20 16:03:00,51.6,25.5,30.01,WNW,293,0.0,0.0,36,0.00,,SKC,0.00,VWS V14.01,2013-01-20 21:03:00,
2013-01-20 16:08:00,51.4,25.4,30.01,WNW,289,0.0,0.0,36,0.00,,SKC,0.00,VWS V14.01,2013-01-20 21:08:00,
2013-01-20 16:13:00,51.1,24.4,30.01,NW,305,0.0,0.0,35,0.00,,SKC,0.00,VWS V14.01,2013-01-20 21:13:00,
2013-01-20 16:18:00,50.8,25.5,30.01,WNW,290,0.0,0.0,37,0.00,,SKC,0.00,VWS V14.01,2013-01-20 21:18:00,
2013-01-20 16:23:00,50.8,24.1,30.01,WNW,293,0.0,0.0,35,0.00,,SKC,0.00,VWS V14.01,2013-01-20 21:23:00,
2013-01-20 16:28:00,50.5,24.6,30.01,WNW,295,0.0,0.0,36,0.00,,SKC,0.00,VWS V14.01,2013-01-20 21:28:00,
2013-01-20 16:33:00,50.4,25.8,30.01,WNW,283,0.0,0.0,38,0.00,,SKC,0.00,VWS V14.01,2013-01-20 21:33:00,
2013-01-20 16:38:00,50.4,25.8,30.01,NW,308,0.0,0.0,38,0.00,,SKC,0.00,VWS V14.01,2013-01-20 21:38:00,
2013-01-20 16:43:00,50.1,26.7,30.01,WNW,284,0.0,0.0,40,0.00,,SKC,0.00,VWS V14.01,2013-01-20 21:43:00,
2013-01-20 16:48:00,50.1,26.1,30.01,WNW,295,0.0,0.0,39,0.00,,SKC,0.00,VWS V14.01,2013-01-20 21:48:00,
2013-01-20 16:53:00,49.9,26.0,30.01,WNW,295,0.0,0.0,39,0.00,,SKC,0.00,VWS V14.01,2013-01-20 21:53:00,
2013-01-20 16:58:00,49.6,26.3,30.01,WNW,302,0.0,0.0,40,0.00,,SKC,0.00,VWS V14.01,2013-01-20 21:58:00,
2013-01-20 17:03:00,49.2,25.9,30.02,West,270,0.0,0.0,40,0.00,,SKC,0.00,VWS V14.01,2013-01-20 22:03:00,
2013-01-20 17:08:00,48.9,26.2,30.02,West,267,0.0,0.0,41,0.00,,SKC,0.00,VWS V14.01,2013-01-20 22:08:00,
2013-01-20 17:13:00,48.8,26.2,30.02,WNW,291,0.0,0.0,41,0.00,,SKC,0.00,VWS V14.01,2013-01-20 22:13:00,
2013-01-20 17:18:00,48.6,26.6,30.02,WNW,288,0.0,0.0,42,0.00,,SKC,0.00,VWS V14.01,2013-01-20 22:18:00,
2013-01-20 17:23:00,48.3,26.3,30.02,West,281,0.0,0.0,42,0.00,,SKC,0.00,VWS V14.01,2013-01-20 22:23:00,
2013-01-20 17:28:00,48.3,26.3,30.02,WNW,303,0.0,0.0,42,0.00,,SKC,0.00,VWS V14.01,2013-01-20 22:28:00,
2013-01-20 17:33:00,48.3,26.9,30.03,WNW,303,0.0,0.0,43,0.00,,SKC,0.00,VWS V14.01,2013-01-20 22:33:00,
2013-01-20 17:38:00,48.0,27.1,30.03,West,268,0.0,0.0,44,0.00,,SKC,0.00,VWS V14.01,2013-01-20 22:38:00,
2013-01-20 17:43:00,47.7,26.9,30.03,WSW,258,0.0,0.0,44,0.00,,SKC,0.00,VWS V14.01,2013-01-20 22:43:00,
2013-01-20 17:48:00,47.6,27.3,30.03,WNW,286,0.0,0.0,45,0.00,,SKC,0.00,VWS V14.01,2013-01-20 22:48:00,
2013-01-20 17:53:00,47.3,27.6,30.03,WNW,291,0.0,0.0,46,0.00,,SKC,0.00,VWS V14.01,2013-01-20 22:53:00,
2013-01-20 17:58:00,47.3,27.0,30.03,WNW,283,0.0,0.0,45,0.00,,SKC,0.00,VWS V14.01,2013-01-20 22:58:00,
2013-01-20 18:03:00,47.1,26.9,30.03,West,264,0.0,0.0,45,0.00,,SKC,0.00,VWS V14.01,2013-01-20 23:03:00,
2013-01-20 18:08:00,47.0,26.8,30.03,West,264,0.0,0.0,45,0.00,,SKC,0.00,VWS V14.01,2013-01-20 23:08:00,
2013-01-20 18:13:00,46.7,27.6,30.03,West,272,0.0,0.0,47,0.00,,SKC,0.00,VWS V14.01,2013-01-20 23:13:00,
2013-01-20 18:18:00,46.2,27.1,30.03,West,270,0.0,0.0,47,0.00,,SKC,0.00,VWS V14.01,2013-01-20 23:18:00,
2013-01-20 18:23:00,46.0,27.4,30.03,NW,315,0.0,0.0,48,0.00,,SKC,0.00,VWS V14.01,2013-01-20 23:23:00,
2013-01-20 18:28:00,45.8,27.7,30.03,WNW,298,0.0,0.0,49,0.00,,SKC,0.00,VWS V14.01,2013-01-20 23:28:00,
2013-01-20 18:33:00,46.0,26.9,30.04,West,269,0.0,0.0,47,0.00,,SKC,0.00,VWS V14.01,2013-01-20 23:33:00,
2013-01-20 18:38:00,46.0,27.4,30.04,West,274,0.0,0.0,48,0.00,,SKC,0.00,VWS V14.01,2013-01-20 23:38:00,
2013-01-20 18:43:00,45.8,27.2,30.04,West,274,0.0,0.0,48,0.00,,SKC,0.00,VWS V14.01,2013-01-20 23:43:00,
2013-01-20 18:48:00,45.7,26.6,30.04,NNW,345,0.0,0.0,47,0.00,,SKC,0.00,VWS V14.01,2013-01-20 23:48:00,
2013-01-20 18:53:00,45.7,26.6,30.04,NW,304,0.0,0.0,47,0.00,,SKC,0.00,VWS V14.01,2013-01-20 23:53:00,
2013-01-20 18:58:00,45.4,26.9,30.04,NW,304,0.0,0.0,48,0.00,,SKC,0.00,VWS V14.01,2013-01-20 23:58:00,
2013-01-20 19:03:00,45.1,27.1,30.05,NW,304,0.0,0.0,49,0.00,,SKC,0.00,VWS V14.01,2013-01-21 00:03:00,
2013-01-20 19:08:00,44.9,26.9,30.05,West,278,0.0,0.0,49,0.00,,SKC,0.00,VWS V14.01,2013-01-21 00:08:00,
2013-01-20 19:13:00,45.1,26.6,30.05,West,279,0.0,0.0,48,0.00,,SKC,0.00,VWS V14.01,2013-01-21 00:13:00,
2013-01-20 19:18:00,45.1,27.1,30.06,West,274,0.0,0.0,49,0.00,,SKC,0.00,VWS V14.01,2013-01-21 00:18:00,
2013-01-20 19:23:00,45.1,27.1,30.06,West,274,0.0,0.0,49,0.00,,SKC,0.00,VWS V14.01,2013-01-21 00:23:00,
2013-01-20 19:28:00,44.8,27.3,30.06,West,276,0.0,0.0,50,0.00,,SKC,0.00,VWS V14.01,2013-01-21 00:28:00,
2013-01-20 19:33:00,44.9,27.4,30.05,WSW,251,0.0,0.0,50,0.00,,SKC,0.00,VWS V14.01,2013-01-21 00:33:00,
2013-01-20 19:38:00,44.8,27.8,30.05,West,267,0.0,0.0,51,0.00,,SKC,0.00,VWS V14.01,2013-01-21 00:38:00,
2013-01-20 19:43:00,44.5,27.0,30.05,West,267,0.0,0.0,50,0.00,,SKC,0.00,VWS V14.01,2013-01-21 00:43:00,
2013-01-20 19:48:00,44.5,27.0,30.05,West,267,0.0,0.0,50,0.00,,SKC,0.00,VWS V14.01,2013-01-21 00:48:00,
2013-01-20 19:53:00,44.5,27.0,30.05,West,268,0.0,0.0,50,0.00,,SKC,0.00,VWS V14.01,2013-01-21 00:53:00,
2013-01-20 19:58:00,44.5,27.0,30.05,West,266,0.0,0.0,50,0.00,,SKC,0.00,VWS V14.01,2013-01-21 00:58:00,
2013-01-20 20:03:00,44.3,27.3,30.05,West,280,0.0,0.0,51,0.00,,SKC,0.00,VWS V14.01,2013-01-21 01:03:00,
2013-01-20 20:08:00,44.3,27.3,30.05,West,281,0.0,0.0,51,0.00,,SKC,0.00,VWS V14.01,2013-01-21 01:08:00,
2013-01-20 20:13:00,44.3,26.9,30.05,WNW,285,0.0,0.0,50,0.00,,SKC,0.00,VWS V14.01,2013-01-21 01:13:00,
2013-01-20 20:18:00,44.5,27.5,30.05,WNW,285,0.0,0.0,51,0.00,,SKC,0.00,VWS V14.01,2013-01-21 01:18:00,
2013-01-20 20:23:00,44.6,28.1,30.05,WNW,285,0.0,0.0,52,0.00,,SKC,0.00,VWS V14.01,2013-01-21 01:23:00,
2013-01-20 20:28:00,44.5,28.0,30.05,WSW,252,0.0,0.0,52,0.00,,SKC,0.00,VWS V14.01,2013-01-21 01:28:00,
2013-01-20 20:33:00,44.5,28.0,30.05,West,266,0.0,0.0,52,0.00,,SKC,0.00,VWS V14.01,2013-01-21 01:33:00,
2013-01-20 20:38:00,44.5,28.5,30.05,NW,321,0.0,0.0,53,0.00,,SKC,0.00,VWS V14.01,2013-01-21 01:38:00,
2013-01-20 20:43:00,44.6,28.5,30.05,West,264,0.0,0.0,53,0.00,,SKC,0.00,VWS V14.01,2013-01-21 01:43:00,
2013-01-20 20:48:00,44.6,28.5,30.05,WNW,300,0.0,0.0,53,0.00,,SKC,0.00,VWS V14.01,2013-01-21 01:48:00,
2013-01-20 20:53:00,44.6,28.5,30.05,WNW,283,0.0,0.0,53,0.00,,SKC,0.00,VWS V14.01,2013-01-21 01:53:00,
2013-01-20 20:58:00,44.6,28.5,30.05,WNW,282,0.0,0.0,53,0.00,,SKC,0.00,VWS V14.01,2013-01-21 01:58:00,
2013-01-20 21:03:00,44.6,28.5,30.05,WNW,283,0.0,0.0,53,0.00,,SKC,0.00,VWS V14.01,2013-01-21 02:03:00,
2013-01-20 21:08:00,44.6,28.1,30.05,WNW,282,0.0,0.0,52,0.00,,SKC,0.00,VWS V14.01,2013-01-21 02:08:00,
2013-01-20 21:13:00,44.6,28.5,30.05,NW,321,0.0,0.0,53,0.00,,SKC,0.00,VWS V14.01,2013-01-21 02:13:00,
2013-01-20 21:18:00,44.6,29.0,30.04,WNW,298,0.0,0.0,54,0.00,,SKC,0.00,VWS V14.01,2013-01-21 02:18:00,
2013-01-20 21:23:00,44.6,29.0,30.04,WNW,283,0.0,0.0,54,0.00,,SKC,0.00,VWS V14.01,2013-01-21 02:23:00,
2013-01-20 21:28:00,44.9,28.8,30.04,West,269,0.0,0.0,53,0.00,,SKC,0.00,VWS V14.01,2013-01-21 02:28:00,
2013-01-20 21:33:00,45.1,29.0,30.03,WSW,255,0.0,0.0,53,0.00,,SKC,0.00,VWS V14.01,2013-01-21 02:33:00,
2013-01-20 21:38:00,45.1,29.0,30.03,West,263,0.0,0.0,53,0.00,,SKC,0.00,VWS V14.01,2013-01-21 02:38:00,
2013-01-20 21:43:00,45.1,29.0,30.03,West,278,0.0,0.0,53,0.00,,SKC,0.00,VWS V14.01,2013-01-21 02:43:00,
2013-01-20 21:48:00,44.9,29.3,30.03,West,281,0.0,0.0,54,0.00,,SKC,0.00,VWS V14.01,2013-01-21 02:48:00,
2013-01-20 21:53:00,44.6,29.5,30.03,West,278,0.0,0.0,55,0.00,,SKC,0.00,VWS V14.01,2013-01-21 02:53:00,
2013-01-20 21:58:00,44.3,29.2,30.03,West,259,0.0,0.0,55,0.00,,SKC,0.00,VWS V14.01,2013-01-21 02:58:00,
2013-01-20 22:03:00,44.3,29.2,30.03,WNW,300,0.0,0.0,55,0.00,,SKC,0.00,VWS V14.01,2013-01-21 03:03:00,
2013-01-20 22:08:00,44.1,29.4,30.03,SW,229,0.0,0.0,56,0.00,,SKC,0.00,VWS V14.01,2013-01-21 03:08:00,
2013-01-20 22:13:00,43.9,29.2,30.03,SW,231,0.0,0.0,56,0.00,,SKC,0.00,VWS V14.01,2013-01-21 03:13:00,
2013-01-20 22:18:00,44.1,29.0,30.02,West,281,0.0,0.0,55,0.00,,SKC,0.00,VWS V14.01,2013-01-21 03:18:00,
2013-01-20 22:23:00,43.9,29.2,30.02,West,281,0.0,0.0,56,0.00,,SKC,0.00,VWS V14.01,2013-01-21 03:23:00,
2013-01-20 22:28:00,43.3,29.5,30.02,West,281,0.0,0.0,58,0.00,,SKC,0.00,VWS V14.01,2013-01-21 03:28:00,
2013-01-20 22:33:00,42.9,29.2,30.02,West,260,0.0,0.0,58,0.00,,SKC,0.00,VWS V14.01,2013-01-21 03:33:00,
2013-01-20 22:38:00,42.5,29.2,30.02,NW,309,0.0,0.0,59,0.00,,SKC,0.00,VWS V14.01,2013-01-21 03:38:00,
2013-01-20 22:43:00,42.8,28.6,30.02,NW,309,0.0,0.0,57,0.00,,SKC,0.00,VWS V14.01,2013-01-21 03:43:00,
2013-01-20 22:48:00,42.8,28.2,30.02,NW,307,0.0,0.0,56,0.00,,SKC,0.00,VWS V14.01,2013-01-21 03:48:00,
2013-01-20 22:53:00,42.9,28.7,30.02,NW,307,0.0,0.0,57,0.00,,SKC,0.00,VWS V14.01,2013-01-21 03:53:00,
2013-01-20 22:58:00,42.5,28.4,30.02,SSW,205,0.0,0.0,57,0.00,,SKC,0.00,VWS V14.01,2013-01-21 03:58:00,
2013-01-20 23:03:00,42.5,28.8,30.02,SW,217,0.0,0.0,58,0.00,,SKC,0.00,VWS V14.01,2013-01-21 04:03:00,
2013-01-20 23:08:00,42.6,28.0,30.02,SW,214,0.0,0.0,56,0.00,,SKC,0.00,VWS V14.01,2013-01-21 04:08:00,
2013-01-20 23:13:00,42.8,28.2,30.02,SW,214,0.0,0.0,56,0.00,,SKC,0.00,VWS V14.01,2013-01-21 04:13:00,
2013-01-20 23:18:00,42.8,28.2,30.02,SW,214,0.0,0.0,56,0.00,,SKC,0.00,VWS V14.01,2013-01-21 04:18:00,
2013-01-20 23:23:00,42.3,28.6,30.02,SW,214,0.0,0.0,58,0.00,,SKC,0.00,VWS V14.01,2013-01-21 04:23:00,
2013-01-20 23:28:00,41.6,28.4,30.02,SW,214,0.0,0.0,59,0.00,,SKC,0.00,VWS V14.01,2013-01-21 04:28:00,
2013-01-20 23:33:00,41.2,28.0,30.02,SW,232,0.0,0.0,59,0.00,,SKC,0.00,VWS V14.01,2013-01-21 04:33:00,
2013-01-20 23:38:00,41.1,27.5,30.02,SW,233,0.0,0.0,58,0.00,,SKC,0.00,VWS V14.01,2013-01-21 04:38:00,
2013-01-20 23:43:00,41.2,27.6,30.02,SW,233,0.0,0.0,58,0.00,,SKC,0.00,VWS V14.01,2013-01-21 04:43:00,
2013-01-20 23:48:00,40.9,27.7,30.02,SW,233,0.0,0.0,59,0.00,,SKC,0.00,VWS V14.01,2013-01-21 04:48:00,
2013-01-20 23:53:00,40.5,28.1,30.02,WSW,238,0.0,0.0,61,0.00,,SKC,0.00,VWS V14.01,2013-01-21 04:53:00,
2013-01-20 23:58:00,40.2,27.4,30.02,WSW,238,0.0,0.0,60,0.00,,SKC,0.00,VWS V14.01,2013-01-21 04:58:00,